Heathsville, Illinois
Current Conditions -  °F | °C
As of 10:35 PM on Saturday 22 Nov 2014 (Local Time) from KRSV Reporting Station
Light Rain Light Rain  
Wind Chill: 53°   Ceiling: 4100
Heat Index: 53°   Visibility: 10mi
Dew Point: 41°   Wind: 8mph
Humidity: 64%   Direction: 160°SSE
Pressure: 29.98"   Gusts: NA
Location:  38.904°N, 87.665°W
Report Text: KRSV 230435Z AUTO 16007KT 10SM -RA BKN041 BKN049 OVC060 11/05 A2998 RMK AO2 T01140049
Loading
Personal Weather Stations






























Interactive Weather Map New forecast layout! Learn more

10-Day Weather Forecast

Advertisements
Track Severe Weather on mobile